createdAt,value
2022-08-19T00:02:01.642Z,3.50
2022-08-19T00:04:35.858Z,7.90
2022-08-19T00:07:03.712Z,4.55
2022-08-19T00:09:30.716Z,4.35
2022-08-19T00:11:58.732Z,5.05
2022-08-19T00:14:27.851Z,2.15
2022-08-19T00:16:55.780Z,4.00
2022-08-19T00:19:23.441Z,4.60
2022-08-19T00:21:50.601Z,4.32
2022-08-19T00:24:17.703Z,2.42
2022-08-19T00:26:46.438Z,3.90
2022-08-19T00:29:16.078Z,4.05
2022-08-19T00:31:44.146Z,3.90
2022-08-19T00:34:12.764Z,6.45
2022-08-19T00:36:40.293Z,4.30
2022-08-19T00:39:07.218Z,2.72
2022-08-19T00:41:34.441Z,4.30
2022-08-19T00:44:27.102Z,2.63
2022-08-19T00:46:58.038Z,5.60
2022-08-19T00:49:52.240Z,4.38
2022-08-19T00:52:34.401Z,4.18
2022-08-19T00:55:02.317Z,4.93
2022-08-19T00:57:45.501Z,3.35
2022-08-19T01:00:16.198Z,18.20
2022-08-19T01:02:44.270Z,13.68
2022-08-19T01:05:19.564Z,13.52
2022-08-19T01:07:46.814Z,18.85
2022-08-19T01:10:17.237Z,18.65
2022-08-19T01:12:44.324Z,11.75
2022-08-19T01:15:13.038Z,22.52
2022-08-19T01:17:42.046Z,9.55
2022-08-19T01:20:14.684Z,12.05
2022-08-19T01:22:47.119Z,19.88
2022-08-19T01:25:16.722Z,17.27
2022-08-19T01:27:48.387Z,12.30
2022-08-19T01:30:26.794Z,6.65
2022-08-19T01:32:55.063Z,4.13
2022-08-19T01:35:24.508Z,5.80
2022-08-19T01:38:08.500Z,3.78
2022-08-19T01:40:39.132Z,6.75
2022-08-19T01:43:06.676Z,8.77
2022-08-19T01:45:34.637Z,8.05
2022-08-19T01:48:02.709Z,7.50
2022-08-19T01:50:33.719Z,3.55
2022-08-19T01:53:06.353Z,4.95
2022-08-19T01:55:40.946Z,3.08
2022-08-19T01:58:13.229Z,3.58
2022-08-19T02:00:40.391Z,5.10
2022-08-19T02:03:07.512Z,2.50
2022-08-19T02:05:34.328Z,4.68
2022-08-19T02:08:01.459Z,4.13
2022-08-19T02:10:28.155Z,3.20
2022-08-19T02:12:55.207Z,8.43
2022-08-19T02:15:23.389Z,6.78
2022-08-19T02:17:50.380Z,4.90
2022-08-19T02:20:17.151Z,5.80
2022-08-19T02:22:44.822Z,7.55
2022-08-19T02:25:14.195Z,2.33
2022-08-19T02:27:41.867Z,4.28
2022-08-19T02:30:14.209Z,9.57
2022-08-19T02:32:44.693Z,3.38
2022-08-19T02:35:13.468Z,4.85
2022-08-19T02:38:06.825Z,7.63
2022-08-19T02:40:35.255Z,6.47
2022-08-19T02:43:04.130Z,5.57
2022-08-19T02:45:35.542Z,6.22
2022-08-19T02:48:14.889Z,5.25
2022-08-19T02:50:55.723Z,8.18
2022-08-19T02:53:25.167Z,10.13
2022-08-19T02:55:52.581Z,7.40
2022-08-19T02:58:20.468Z,5.80
2022-08-19T03:00:52.433Z,4.75
2022-08-19T03:03:20.033Z,9.80
2022-08-19T03:05:55.886Z,6.93
2022-08-19T03:08:23.082Z,4.47
2022-08-19T03:10:49.799Z,6.95
2022-08-19T03:13:18.409Z,5.05
2022-08-19T03:15:48.436Z,4.43
2022-08-19T03:18:16.090Z,5.97
2022-08-19T03:20:47.047Z,5.43
2022-08-19T03:23:14.915Z,8.27
2022-08-19T03:25:44.175Z,7.57
2022-08-19T03:28:12.873Z,5.97
2022-08-19T03:30:41.842Z,2.58
2022-08-19T03:33:17.954Z,5.38
2022-08-19T03:35:46.039Z,6.53
2022-08-19T03:38:12.776Z,3.47
2022-08-19T03:40:39.487Z,5.85
2022-08-19T03:43:06.972Z,4.72
2022-08-19T03:45:33.652Z,5.35
2022-08-19T03:48:00.379Z,4.57
2022-08-19T03:50:27.502Z,3.25
2022-08-19T03:52:54.443Z,4.75
2022-08-19T03:55:21.626Z,9.27
2022-08-19T03:57:49.278Z,5.43
2022-08-19T04:00:16.479Z,4.18
2022-08-19T04:02:58.547Z,5.40
2022-08-19T04:05:29.567Z,5.00
2022-08-19T04:07:59.690Z,3.80
2022-08-19T04:10:26.491Z,3.50
2022-08-19T04:12:53.333Z,2.85
2022-08-19T04:15:20.513Z,3.65
2022-08-19T04:17:47.610Z,3.92
2022-08-19T04:20:14.340Z,4.75
2022-08-19T04:22:41.092Z,3.33
2022-08-19T04:25:08.075Z,8.10
2022-08-19T04:27:35.237Z,5.03
2022-08-19T04:30:02.475Z,6.22
2022-08-19T04:32:29.211Z,4.47
2022-08-19T04:35:02.111Z,3.90
2022-08-19T04:37:44.530Z,4.68
2022-08-19T04:40:30.584Z,5.43
2022-08-19T04:42:57.402Z,6.90
2022-08-19T04:45:24.206Z,7.15
2022-08-19T04:47:58.292Z,6.10
2022-08-19T04:50:27.433Z,4.82
2022-08-19T04:52:54.636Z,5.60
2022-08-19T04:55:21.556Z,10.63
2022-08-19T04:57:48.466Z,18.70
2022-08-19T05:00:15.257Z,9.20
2022-08-19T05:02:42.245Z,5.68
2022-08-19T05:05:09.519Z,5.43
2022-08-19T05:07:37.327Z,4.18
2022-08-19T05:10:06.389Z,4.47
2022-08-19T05:12:33.131Z,5.47
2022-08-19T05:15:00.426Z,4.60
2022-08-19T05:17:31.023Z,5.35
2022-08-19T05:20:17.873Z,4.95
2022-08-19T05:22:47.070Z,6.78
2022-08-19T05:25:20.016Z,9.60
2022-08-19T05:27:47.073Z,5.85
2022-08-19T05:30:14.088Z,9.02
2022-08-19T05:32:41.192Z,5.85
2022-08-19T05:35:08.638Z,13.50
2022-08-19T05:37:35.379Z,5.97
2022-08-19T05:40:02.720Z,7.65
2022-08-19T05:42:31.501Z,10.73
2022-08-19T05:44:58.241Z,7.95
2022-08-19T05:47:24.972Z,6.97
2022-08-19T05:49:52.172Z,5.68
2022-08-19T05:52:25.833Z,5.57
2022-08-19T05:54:56.602Z,9.25
2022-08-19T05:57:24.957Z,7.20
2022-08-19T05:59:53.252Z,7.95
2022-08-19T06:02:29.468Z,5.40
2022-08-19T06:04:56.294Z,6.32
2022-08-19T06:07:23.668Z,7.50
2022-08-19T06:10:00.468Z,5.70
2022-08-19T06:12:29.884Z,5.95
2022-08-19T06:15:01.229Z,5.70
2022-08-19T06:17:31.057Z,6.38
2022-08-19T06:19:59.611Z,8.15
2022-08-19T06:22:27.054Z,8.68
2022-08-19T06:24:54.858Z,11.38
2022-08-19T06:27:22.612Z,7.20
2022-08-19T06:29:50.051Z,7.88
2022-08-19T06:32:19.583Z,7.18
2022-08-19T06:34:46.620Z,7.38
2022-08-19T06:37:13.968Z,7.28
2022-08-19T06:39:42.601Z,11.45
2022-08-19T06:42:12.518Z,6.05
2022-08-19T06:44:43.177Z,10.75
2022-08-19T06:47:14.243Z,9.20
2022-08-19T06:49:41.196Z,7.93
2022-08-19T06:52:08.422Z,6.88
2022-08-19T06:54:37.643Z,5.88
2022-08-19T06:57:24.090Z,7.47
2022-08-19T06:59:50.897Z,7.18
2022-08-19T07:04:44.885Z,5.60
2022-08-19T07:07:19.994Z,7.03
2022-08-19T07:09:57.179Z,4.25
2022-08-19T07:12:35.634Z,6.20
2022-08-19T07:15:06.357Z,5.45
2022-08-19T07:17:34.414Z,4.20
2022-08-19T07:20:05.366Z,3.90
2022-08-19T07:22:35.232Z,3.10
2022-08-19T07:25:04.766Z,2.60
2022-08-19T07:27:33.691Z,5.22
2022-08-19T07:30:01.332Z,3.33
2022-08-19T07:32:28.223Z,4.35
2022-08-19T07:34:56.647Z,2.65
2022-08-19T07:37:32.046Z,3.03
2022-08-19T07:40:00.249Z,5.03
2022-08-19T07:42:27.774Z,5.95
2022-08-19T07:44:54.600Z,5.90
2022-08-19T07:47:48.969Z,6.47
2022-08-19T07:50:12.275Z,3.50
2022-08-19T07:52:45.715Z,3.83
2022-08-19T07:55:42.056Z,5.40
2022-08-19T07:58:05.800Z,6.35
2022-08-19T08:00:32.712Z,8.82
2022-08-19T08:02:59.534Z,9.13
2022-08-19T08:05:44.867Z,7.97
2022-08-19T08:08:31.292Z,3.72
2022-08-19T08:10:59.469Z,5.53
2022-08-19T08:13:27.877Z,6.15
2022-08-19T08:15:54.809Z,8.35
2022-08-19T08:18:22.782Z,5.05
2022-08-19T08:20:55.494Z,4.00
2022-08-19T08:23:29.624Z,6.78
2022-08-19T08:25:58.705Z,6.22
2022-08-19T08:28:29.738Z,3.83
2022-08-19T08:30:58.191Z,7.13
2022-08-19T08:33:33.511Z,6.38
2022-08-19T08:36:12.337Z,5.63
2022-08-19T08:38:40.633Z,3.67
2022-08-19T08:41:20.346Z,5.43
2022-08-19T08:43:50.154Z,6.47
2022-08-19T08:46:31.688Z,5.15
2022-08-19T08:49:12.861Z,3.20
2022-08-19T08:51:48.333Z,7.35
2022-08-19T08:54:31.510Z,5.18
2022-08-19T08:57:00.897Z,5.38
2022-08-19T08:59:38.269Z,4.60
2022-08-19T09:02:05.601Z,5.47
2022-08-19T09:04:32.389Z,4.03
2022-08-19T09:07:18.569Z,3.13
2022-08-19T09:10:17.886Z,2.92
2022-08-19T09:12:59.903Z,5.90
2022-08-19T09:15:36.823Z,2.67
2022-08-19T09:18:07.200Z,5.38
2022-08-19T09:20:34.408Z,3.85
2022-08-19T09:23:01.339Z,7.93
2022-08-19T09:25:29.582Z,5.05
2022-08-19T09:28:01.160Z,5.05
2022-08-19T09:30:33.978Z,3.70
2022-08-19T09:33:01.884Z,5.15
2022-08-19T09:35:30.588Z,2.40
2022-08-19T09:37:59.477Z,4.18
2022-08-19T09:40:30.270Z,7.50
2022-08-19T09:43:01.081Z,2.50
2022-08-19T09:45:28.001Z,3.88
2022-08-19T09:47:55.502Z,2.35
2022-08-19T09:50:24.019Z,2.30
2022-08-19T09:52:54.193Z,3.95
2022-08-19T09:55:25.029Z,3.38
2022-08-19T09:57:59.640Z,2.80
2022-08-19T10:00:27.696Z,2.45
2022-08-19T10:02:54.454Z,2.20
2022-08-19T10:05:42.422Z,1.70
2022-08-19T10:08:13.471Z,3.58
2022-08-19T10:10:46.348Z,1.55
2022-08-19T10:13:16.368Z,2.47
2022-08-19T10:15:47.561Z,1.65
2022-08-19T10:18:19.117Z,1.73
2022-08-19T10:20:51.565Z,2.33
2022-08-19T10:23:20.793Z,2.47
2022-08-19T10:25:48.863Z,2.42
2022-08-19T10:28:16.076Z,2.42
2022-08-19T10:30:46.371Z,1.58
2022-08-19T10:33:13.667Z,3.30
2022-08-19T10:35:42.652Z,1.77
2022-08-19T10:38:31.717Z,3.30
2022-08-19T10:41:07.660Z,3.15
2022-08-19T10:43:37.768Z,3.83
2022-08-19T10:46:06.478Z,2.80
2022-08-19T10:48:41.459Z,3.28
2022-08-19T10:51:27.304Z,3.65
2022-08-19T10:53:54.998Z,2.85
2022-08-19T10:56:40.187Z,2.40
2022-08-19T10:59:07.323Z,1.92
2022-08-19T11:01:35.664Z,1.80
2022-08-19T11:04:04.291Z,2.72
2022-08-19T11:06:33.179Z,0.80
2022-08-19T11:09:00.933Z,4.40
2022-08-19T11:11:29.336Z,3.45
2022-08-19T11:13:56.095Z,2.72
2022-08-19T11:16:27.055Z,2.92
2022-08-19T11:18:59.232Z,3.03
2022-08-19T11:21:34.608Z,4.25
2022-08-19T11:24:04.986Z,1.70
2022-08-19T11:26:32.373Z,1.27
2022-08-19T11:29:00.799Z,1.70
2022-08-19T11:31:34.282Z,3.92
2022-08-19T11:34:04.319Z,2.83
2022-08-19T11:36:33.568Z,2.95
2022-08-19T11:39:01.572Z,1.95
2022-08-19T11:41:28.654Z,1.73
2022-08-19T11:43:56.328Z,2.92
2022-08-19T11:46:25.135Z,2.10
2022-08-19T11:48:51.923Z,2.33
2022-08-19T11:51:22.619Z,3.38
2022-08-19T11:53:51.348Z,1.10
2022-08-19T11:56:19.738Z,2.63
2022-08-19T11:58:46.715Z,2.67
2022-08-19T12:01:18.747Z,5.72
2022-08-19T12:03:47.734Z,4.30
2022-08-19T12:06:20.108Z,2.63
2022-08-19T12:08:48.453Z,1.25
2022-08-19T12:11:15.973Z,2.08
2022-08-19T12:13:45.898Z,1.83
2022-08-19T12:16:16.793Z,3.95
2022-08-19T12:18:46.200Z,1.63
2022-08-19T12:21:19.242Z,1.70
2022-08-19T12:23:46.365Z,1.38
2022-08-19T12:26:13.095Z,2.65
2022-08-19T12:28:39.971Z,3.42
2022-08-19T12:31:07.170Z,3.00
2022-08-19T12:33:34.253Z,2.33
2022-08-19T12:36:04.685Z,1.92
2022-08-19T12:38:31.409Z,2.78
2022-08-19T12:41:00.319Z,2.67
2022-08-19T12:43:27.953Z,5.25
2022-08-19T12:45:54.663Z,2.55
2022-08-19T12:48:34.899Z,4.78
2022-08-19T12:51:07.665Z,2.47
2022-08-19T12:53:34.614Z,2.95
2022-08-19T12:56:08.141Z,3.22
2022-08-19T12:58:40.135Z,3.03
2022-08-19T13:01:15.074Z,3.28
2022-08-19T13:03:46.756Z,2.85
2022-08-19T13:06:14.141Z,2.72
2022-08-19T13:08:46.595Z,4.78
2022-08-19T13:11:18.303Z,3.00
2022-08-19T13:13:47.297Z,1.40
2022-08-19T13:16:15.030Z,2.63
2022-08-19T13:18:44.960Z,2.58
2022-08-19T13:21:14.660Z,1.65
2022-08-19T13:23:42.635Z,3.03
2022-08-19T13:26:10.970Z,2.55
2022-08-19T13:28:56.454Z,1.48
2022-08-19T13:31:43.791Z,1.92
2022-08-19T13:34:10.954Z,3.15
2022-08-19T13:36:38.894Z,2.30
2022-08-19T13:39:08.241Z,1.98
2022-08-19T13:41:35.897Z,1.42
2022-08-19T13:44:03.063Z,2.28
2022-08-19T13:46:30.948Z,4.07
2022-08-19T13:48:58.423Z,2.85
2022-08-19T13:51:25.173Z,1.65
2022-08-19T13:53:51.974Z,2.10
2022-08-19T13:56:24.180Z,4.00
2022-08-19T13:58:54.288Z,3.88
2022-08-19T14:01:25.133Z,4.72
2022-08-19T14:03:52.381Z,1.83
2022-08-19T14:06:19.791Z,2.90
2022-08-19T14:08:48.244Z,1.58
2022-08-19T14:11:15.882Z,3.63
2022-08-19T14:13:42.659Z,2.28
2022-08-19T14:16:11.331Z,2.03
2022-08-19T14:18:39.428Z,1.80
2022-08-19T14:21:07.111Z,2.33
2022-08-19T14:23:34.645Z,1.90
2022-08-19T14:26:11.196Z,2.40
2022-08-19T14:28:38.424Z,3.55
2022-08-19T14:31:05.491Z,1.23
2022-08-19T14:33:33.547Z,3.13
2022-08-19T14:36:01.436Z,2.85
2022-08-19T14:38:31.294Z,2.10
2022-08-19T14:41:10.845Z,2.03
2022-08-19T14:43:38.525Z,2.97
2022-08-19T14:46:05.593Z,1.90
2022-08-19T14:48:32.305Z,1.80
2022-08-19T14:50:59.019Z,1.77
2022-08-19T14:53:26.580Z,2.60
2022-08-19T14:55:53.472Z,6.57
2022-08-19T14:58:29.843Z,1.42
2022-08-19T15:00:59.842Z,1.33
2022-08-19T15:03:27.041Z,0.77
2022-08-19T15:05:54.037Z,1.85
2022-08-19T15:08:22.591Z,0.55
2022-08-19T15:10:49.731Z,1.08
2022-08-19T15:13:16.774Z,2.40
2022-08-19T15:15:43.554Z,0.82
2022-08-19T15:18:12.056Z,0.55
2022-08-19T15:20:39.209Z,0.63
2022-08-19T15:23:09.228Z,0.98
2022-08-19T15:25:36.414Z,0.77
2022-08-19T15:28:04.253Z,0.47
2022-08-19T15:30:31.246Z,0.52
2022-08-19T15:32:59.032Z,1.48
2022-08-19T15:35:26.160Z,2.10
2022-08-19T15:37:54.512Z,0.38
2022-08-19T15:40:22.564Z,0.65
2022-08-19T15:42:49.994Z,0.30
2022-08-19T15:45:18.951Z,0.25
2022-08-19T15:47:46.245Z,1.85
2022-08-19T15:50:17.139Z,0.70
2022-08-19T15:52:53.635Z,0.82
2022-08-19T15:55:33.171Z,0.20
2022-08-19T15:58:28.458Z,0.63
2022-08-19T16:01:20.874Z,0.60
2022-08-19T16:04:11.306Z,1.50
2022-08-19T16:06:48.721Z,2.17
2022-08-19T16:09:16.966Z,1.58
2022-08-19T16:11:45.800Z,0.90
2022-08-19T16:14:15.236Z,1.45
2022-08-19T16:16:42.652Z,1.35
2022-08-19T16:19:11.816Z,0.50
2022-08-19T16:21:40.489Z,0.85
2022-08-19T16:24:12.957Z,1.75
2022-08-19T16:26:40.858Z,2.95
2022-08-19T16:29:13.058Z,0.75
2022-08-19T16:31:43.337Z,1.23
2022-08-19T16:34:10.939Z,0.55
2022-08-19T16:36:40.670Z,1.25
2022-08-19T16:39:17.729Z,0.63
2022-08-19T16:41:46.080Z,0.55
2022-08-19T16:44:15.257Z,1.35
2022-08-19T16:46:42.475Z,0.63
2022-08-19T16:49:10.540Z,0.68
2022-08-19T16:51:38.828Z,0.50
2022-08-19T16:54:06.323Z,2.30
2022-08-19T16:56:33.248Z,2.42
2022-08-19T16:58:59.943Z,2.10
2022-08-19T17:01:28.552Z,2.33
2022-08-19T17:03:55.820Z,1.33
2022-08-19T17:06:29.661Z,3.78
2022-08-19T17:09:00.461Z,2.55
2022-08-19T17:11:29.993Z,0.82
2022-08-19T17:13:59.015Z,1.40
2022-08-19T17:16:28.434Z,2.00
2022-08-19T17:18:57.304Z,1.70
2022-08-19T17:21:31.871Z,1.05
2022-08-19T17:24:00.705Z,1.65
2022-08-19T17:26:28.596Z,1.48
2022-08-19T17:28:57.274Z,1.10
2022-08-19T17:31:26.599Z,1.50
2022-08-19T17:33:55.121Z,1.75
2022-08-19T17:36:23.625Z,8.48
2022-08-19T17:38:51.484Z,1.58
2022-08-19T17:41:18.879Z,1.95
2022-08-19T17:43:45.568Z,1.45
2022-08-19T17:46:20.421Z,1.35
2022-08-19T17:48:52.932Z,3.80
2022-08-19T17:51:35.864Z,2.55
2022-08-19T17:54:05.532Z,0.95
2022-08-19T17:56:32.602Z,2.72
2022-08-19T17:59:01.694Z,5.80
2022-08-19T18:01:52.008Z,1.45
2022-08-19T18:04:18.713Z,2.50
2022-08-19T18:06:52.771Z,1.30
2022-08-19T18:09:27.535Z,3.58
2022-08-19T18:11:57.138Z,1.45
2022-08-19T18:14:32.867Z,1.23
2022-08-19T18:17:09.432Z,2.22
2022-08-19T18:19:41.075Z,0.95
2022-08-19T18:22:08.520Z,1.50
2022-08-19T18:24:38.675Z,4.97
2022-08-19T18:27:06.896Z,0.98
2022-08-19T18:29:34.153Z,2.65
2022-08-19T18:32:00.838Z,3.78
2022-08-19T18:34:29.485Z,1.92
2022-08-19T18:36:56.229Z,1.88
2022-08-19T18:39:44.251Z,1.10
2022-08-19T18:42:34.971Z,2.65
2022-08-19T18:45:20.532Z,1.55
2022-08-19T18:48:06.351Z,2.00
2022-08-19T18:50:41.553Z,1.80
2022-08-19T18:53:08.682Z,1.60
2022-08-19T18:55:35.406Z,3.08
2022-08-19T18:58:02.778Z,2.05
2022-08-19T19:00:30.760Z,3.10
2022-08-19T19:02:57.812Z,2.88
2022-08-19T19:05:25.672Z,2.33
2022-08-19T19:07:54.270Z,3.63
2022-08-19T19:10:21.108Z,3.47
2022-08-19T19:12:49.198Z,1.80
2022-08-19T19:15:15.911Z,2.85
2022-08-19T19:17:42.568Z,3.15
2022-08-19T19:20:09.883Z,4.55
2022-08-19T19:22:36.659Z,2.13
2022-08-19T19:25:04.881Z,3.58
2022-08-19T19:27:31.597Z,2.92
2022-08-19T19:29:58.384Z,2.20
2022-08-19T19:32:36.950Z,3.15
2022-08-19T19:35:06.876Z,2.42
2022-08-19T19:37:33.692Z,3.75
2022-08-19T19:40:00.475Z,2.92
2022-08-19T19:42:27.174Z,3.38
2022-08-19T19:44:55.734Z,4.40
2022-08-19T19:47:24.600Z,2.97
2022-08-19T19:50:13.255Z,4.97
2022-08-19T19:52:40.662Z,5.07
2022-08-19T19:55:09.341Z,4.95
2022-08-19T19:57:36.238Z,1.88
2022-08-19T20:00:03.964Z,4.22
2022-08-19T20:02:30.713Z,2.22
2022-08-19T20:04:58.793Z,3.70
2022-08-19T20:07:45.559Z,2.22
2022-08-19T20:10:13.366Z,3.95
2022-08-19T20:12:40.165Z,2.47
2022-08-19T20:15:08.439Z,2.42
2022-08-19T20:17:42.488Z,1.73
2022-08-19T20:20:11.131Z,2.95
2022-08-19T20:22:43.012Z,2.08
2022-08-19T20:25:11.489Z,3.67
2022-08-19T20:27:40.073Z,2.42
2022-08-19T20:30:13.709Z,3.33
2022-08-19T20:32:46.746Z,5.50
2022-08-19T20:35:15.336Z,4.70
2022-08-19T20:37:42.336Z,2.03
2022-08-19T20:40:10.946Z,4.45
2022-08-19T20:42:40.533Z,2.88
2022-08-19T20:45:28.039Z,3.55
2022-08-19T20:48:02.543Z,3.28
2022-08-19T20:50:30.780Z,3.50
2022-08-19T20:52:58.369Z,2.03
2022-08-19T20:55:26.584Z,3.47
2022-08-19T20:57:53.717Z,4.05
2022-08-19T21:00:20.780Z,4.05
2022-08-19T21:02:47.485Z,5.22
2022-08-19T21:05:15.067Z,4.10
2022-08-19T21:07:42.025Z,3.92
2022-08-19T21:10:08.883Z,3.92
2022-08-19T21:12:35.727Z,5.75
2022-08-19T21:15:02.546Z,6.10
2022-08-19T21:17:29.302Z,5.18
2022-08-19T21:19:56.029Z,8.07
2022-08-19T21:22:22.715Z,5.30
2022-08-19T21:24:49.532Z,4.68
2022-08-19T21:27:16.217Z,7.78
2022-08-19T21:29:43.142Z,7.95
2022-08-19T21:32:14.156Z,4.85
2022-08-19T21:34:43.949Z,5.15
2022-08-19T21:37:25.129Z,6.38
2022-08-19T21:39:53.831Z,7.22
2022-08-19T21:42:21.188Z,7.88
2022-08-19T21:44:48.098Z,4.35
2022-08-19T21:47:15.114Z,5.25
2022-08-19T21:49:41.944Z,6.43
2022-08-19T21:52:09.195Z,7.07
2022-08-19T21:54:38.073Z,6.78
2022-08-19T21:57:10.082Z,9.30
2022-08-19T21:59:36.989Z,7.20
2022-08-19T22:02:18.987Z,8.20
2022-08-19T22:04:47.396Z,7.63
2022-08-19T22:07:14.652Z,6.55
2022-08-19T22:09:43.352Z,6.30
2022-08-19T22:12:20.943Z,11.52
2022-08-19T22:14:47.628Z,6.40
2022-08-19T22:17:14.661Z,10.25
2022-08-19T22:19:41.545Z,9.18
2022-08-19T22:22:08.371Z,5.53
2022-08-19T22:24:35.094Z,7.82
2022-08-19T22:27:04.159Z,8.82
2022-08-19T22:29:33.817Z,11.77
2022-08-19T22:32:01.577Z,6.32
2022-08-19T22:34:48.272Z,8.73
2022-08-19T22:37:14.950Z,9.82
2022-08-19T22:39:41.948Z,9.43
2022-08-19T22:42:09.180Z,7.22
2022-08-19T22:44:35.922Z,7.30
2022-08-19T22:47:02.729Z,10.32
2022-08-19T22:49:29.438Z,7.88
2022-08-19T22:52:14.796Z,12.23
2022-08-19T22:54:41.485Z,6.05
2022-08-19T22:57:08.196Z,8.77
2022-08-19T22:59:34.888Z,10.63
2022-08-19T23:02:01.609Z,12.75
2022-08-19T23:04:28.365Z,11.65
2022-08-19T23:06:55.107Z,10.25
2022-08-19T23:09:23.422Z,11.13
2022-08-19T23:11:51.207Z,7.25
2022-08-19T23:14:18.472Z,8.65
2022-08-19T23:16:50.828Z,12.15
2022-08-19T23:19:19.143Z,13.55
2022-08-19T23:21:45.919Z,14.13
2022-08-19T23:24:12.736Z,10.68
2022-08-19T23:26:59.843Z,15.23
2022-08-19T23:29:45.487Z,13.45
2022-08-19T23:32:14.144Z,11.50
2022-08-19T23:34:42.814Z,10.07
2022-08-19T23:37:09.568Z,13.25
2022-08-19T23:39:36.386Z,11.10
2022-08-19T23:42:03.750Z,13.18
2022-08-19T23:44:32.084Z,9.70
2022-08-19T23:47:00.383Z,14.13
2022-08-19T23:49:33.383Z,9.20
2022-08-19T23:52:00.068Z,9.32
2022-08-19T23:54:34.423Z,11.38
2022-08-19T23:57:13.806Z,9.63
2022-08-19T23:59:42.494Z,14.52
